sensor_id;sensor_type;location;lat;lon;timestamp;P1;durP1;ratioP1;P2;durP2;ratioP2
1024;SDS011;501;48.214;11.350;2024-01-10T00:01:17;41.83;;;24.60;;
1024;SDS011;501;48.214;11.350;2024-01-10T00:03:43;38.63;;;24.00;;
1024;SDS011;501;48.214;11.350;2024-01-10T00:06:12;43.10;;;24.10;;
1024;SDS011;501;48.214;11.350;2024-01-10T00:08:38;47.70;;;26.77;;
1024;SDS011;501;48.214;11.350;2024-01-10T00:11:03;50.83;;;25.53;;
1024;SDS011;501;48.214;11.350;2024-01-10T00:13:30;42.80;;;24.60;;
1024;SDS011;501;48.214;11.350;2024-01-10T00:15:57;43.53;;;25.93;;
1024;SDS011;501;48.214;11.350;2024-01-10T00:18:24;46.63;;;26.93;;
1024;SDS011;501;48.214;11.350;2024-01-10T00:20:50;48.67;;;25.50;;
1024;SDS011;501;48.214;11.350;2024-01-10T00:23:21;45.40;;;26.60;;
1024;SDS011;501;48.214;11.350;2024-01-10T00:25:47;42.40;;;25.37;;
1024;SDS011;501;48.214;11.350;2024-01-10T00:28:14;46.17;;;26.20;;
1024;SDS011;501;48.214;11.350;2024-01-10T00:30:44;53.43;;;28.20;;
1024;SDS011;501;48.214;11.350;2024-01-10T00:33:12;54.20;;;27.43;;
1024;SDS011;501;48.214;11.350;2024-01-10T00:35:38;50.77;;;27.17;;
1024;SDS011;501;48.214;11.350;2024-01-10T00:38:03;49.00;;;26.80;;
1024;SDS011;501;48.214;11.350;2024-01-10T00:40:29;43.50;;;27.20;;
1024;SDS011;501;48.214;11.350;2024-01-10T00:42:55;45.53;;;27.27;;
1024;SDS011;501;48.214;11.350;2024-01-10T00:45:20;50.67;;;26.87;;
1024;SDS011;501;48.214;11.350;2024-01-10T00:47:48;44.63;;;26.90;;
1024;SDS011;501;48.214;11.350;2024-01-10T00:50:14;42.80;;;26.70;;
1024;SDS011;501;48.214;11.350;2024-01-10T00:52:39;51.47;;;25.70;;
1024;SDS011;501;48.214;11.350;2024-01-10T00:55:05;39.73;;;25.20;;
1024;SDS011;501;48.214;11.350;2024-01-10T00:57:32;46.20;;;26.70;;
1024;SDS011;501;48.214;11.350;2024-01-10T00:59:58;51.37;;;26.27;;
1024;SDS011;501;48.214;11.350;2024-01-10T01:02:23;48.90;;;27.20;;
1024;SDS011;501;48.214;11.350;2024-01-10T01:04:49;40.93;;;24.20;;
1024;SDS011;501;48.214;11.350;2024-01-10T01:07:14;44.40;;;26.37;;
1024;SDS011;501;48.214;11.350;2024-01-10T01:09:40;45.40;;;24.40;;
1024;SDS011;501;48.214;11.350;2024-01-10T01:12:06;50.13;;;27.07;;
1024;SDS011;501;48.214;11.350;2024-01-10T01:14:31;43.13;;;25.90;;
1024;SDS011;501;48.214;11.350;2024-01-10T01:16:57;50.93;;;27.43;;
1024;SDS011;501;48.214;11.350;2024-01-10T01:19:23;42.73;;;26.50;;
1024;SDS011;501;48.214;11.350;2024-01-10T01:21:48;42.10;;;25.90;;
1024;SDS011;501;48.214;11.350;2024-01-10T01:24:14;48.23;;;25.10;;
1024;SDS011;501;48.214;11.350;2024-01-10T01:26:39;48.93;;;28.10;;
1024;SDS011;501;48.214;11.350;2024-01-10T01:29:05;41.70;;;24.90;;
1024;SDS011;501;48.214;11.350;2024-01-10T01:31:31;43.73;;;27.03;;
1024;SDS011;501;48.214;11.350;2024-01-10T01:33:58;49.50;;;27.27;;
1024;SDS011;501;48.214;11.350;2024-01-10T01:36:23;40.77;;;25.37;;
1024;SDS011;501;48.214;11.350;2024-01-10T01:38:49;39.10;;;24.43;;
1024;SDS011;501;48.214;11.350;2024-01-10T01:41:14;43.40;;;24.17;;
1024;SDS011;501;48.214;11.350;2024-01-10T01:43:40;40.03;;;21.00;;
1024;SDS011;501;48.214;11.350;2024-01-10T01:46:06;40.20;;;25.10;;
1024;SDS011;501;48.214;11.350;2024-01-10T01:48:33;36.10;;;23.47;;
1024;SDS011;501;48.214;11.350;2024-01-10T01:51:00;45.63;;;24.13;;
1024;SDS011;501;48.214;11.350;2024-01-10T01:53:27;46.53;;;23.20;;
1024;SDS011;501;48.214;11.350;2024-01-10T01:55:54;42.97;;;25.00;;
1024;SDS011;501;48.214;11.350;2024-01-10T01:58:20;45.43;;;22.80;;
1024;SDS011;501;48.214;11.350;2024-01-10T02:00:48;41.40;;;24.30;;
1024;SDS011;501;48.214;11.350;2024-01-10T02:03:14;39.27;;;24.53;;
1024;SDS011;501;48.214;11.350;2024-01-10T02:05:39;44.73;;;25.93;;
1024;SDS011;501;48.214;11.350;2024-01-10T02:08:05;40.93;;;25.60;;
1024;SDS011;501;48.214;11.350;2024-01-10T02:10:31;43.23;;;24.77;;
1024;SDS011;501;48.214;11.350;2024-01-10T02:12:57;51.97;;;27.03;;
1024;SDS011;501;48.214;11.350;2024-01-10T02:15:23;47.20;;;24.97;;
1024;SDS011;501;48.214;11.350;2024-01-10T02:17:49;38.73;;;26.50;;
1024;SDS011;501;48.214;11.350;2024-01-10T02:20:15;48.00;;;26.57;;
1024;SDS011;501;48.214;11.350;2024-01-10T02:22:45;38.77;;;23.97;;
1024;SDS011;501;48.214;11.350;2024-01-10T02:25:12;46.50;;;26.50;;
1024;SDS011;501;48.214;11.350;2024-01-10T02:27:39;47.13;;;25.33;;
1024;SDS011;501;48.214;11.350;2024-01-10T02:30:06;44.40;;;25.50;;
1024;SDS011;501;48.214;11.350;2024-01-10T02:32:33;45.43;;;25.90;;
1024;SDS011;501;48.214;11.350;2024-01-10T02:34:59;47.73;;;26.10;;
1024;SDS011;501;48.214;11.350;2024-01-10T02:37:25;47.10;;;26.87;;
1024;SDS011;501;48.214;11.350;2024-01-10T02:39:51;47.50;;;26.20;;
1024;SDS011;501;48.214;11.350;2024-01-10T02:42:17;40.13;;;25.90;;
1024;SDS011;501;48.214;11.350;2024-01-10T02:44:43;43.83;;;26.03;;
1024;SDS011;501;48.214;11.350;2024-01-10T02:47:10;45.53;;;26.33;;
1024;SDS011;501;48.214;11.350;2024-01-10T02:49:37;46.90;;;26.27;;
1024;SDS011;501;48.214;11.350;2024-01-10T02:52:03;43.47;;;24.90;;
1024;SDS011;501;48.214;11.350;2024-01-10T02:54:28;42.60;;;26.83;;
1024;SDS011;501;48.214;11.350;2024-01-10T02:56:54;43.80;;;26.60;;
1024;SDS011;501;48.214;11.350;2024-01-10T02:59:20;46.10;;;25.53;;
1024;SDS011;501;48.214;11.350;2024-01-10T03:01:45;45.90;;;26.13;;
1024;SDS011;501;48.214;11.350;2024-01-10T03:04:11;43.80;;;24.33;;
1024;SDS011;501;48.214;11.350;2024-01-10T03:06:37;41.23;;;25.40;;
1024;SDS011;501;48.214;11.350;2024-01-10T03:09:02;46.50;;;20.97;;
1024;SDS011;501;48.214;11.350;2024-01-10T03:11:28;36.83;;;21.40;;
1024;SDS011;501;48.214;11.350;2024-01-10T03:14:00;39.03;;;22.10;;
1024;SDS011;501;48.214;11.350;2024-01-10T03:16:28;36.70;;;20.70;;
1024;SDS011;501;48.214;11.350;2024-01-10T03:18:55;35.70;;;19.70;;
1024;SDS011;501;48.214;11.350;2024-01-10T03:21:20;38.03;;;22.47;;
1024;SDS011;501;48.214;11.350;2024-01-10T03:23:50;37.40;;;20.50;;
1024;SDS011;501;48.214;11.350;2024-01-10T03:26:16;41.80;;;22.53;;
1024;SDS011;501;48.214;11.350;2024-01-10T03:28:41;38.43;;;20.47;;
1024;SDS011;501;48.214;11.350;2024-01-10T03:31:07;42.13;;;22.37;;
1024;SDS011;501;48.214;11.350;2024-01-10T03:33:32;48.70;;;22.27;;
1024;SDS011;501;48.214;11.350;2024-01-10T03:35:58;40.10;;;21.73;;
1024;SDS011;501;48.214;11.350;2024-01-10T03:38:23;42.60;;;22.07;;
1024;SDS011;501;48.214;11.350;2024-01-10T03:40:49;42.53;;;21.37;;
1024;SDS011;501;48.214;11.350;2024-01-10T03:43:15;36.83;;;22.97;;
1024;SDS011;501;48.214;11.350;2024-01-10T03:45:41;35.33;;;22.00;;
1024;SDS011;501;48.214;11.350;2024-01-10T03:48:07;44.40;;;22.37;;
1024;SDS011;501;48.214;11.350;2024-01-10T03:50:33;39.33;;;20.93;;
1024;SDS011;501;48.214;11.350;2024-01-10T03:52:59;43.70;;;22.27;;
1024;SDS011;501;48.214;11.350;2024-01-10T03:55:24;40.63;;;20.00;;
1024;SDS011;501;48.214;11.350;2024-01-10T03:57:50;36.53;;;20.63;;
1024;SDS011;501;48.214;11.350;2024-01-10T04:00:16;37.77;;;21.03;;
1024;SDS011;501;48.214;11.350;2024-01-10T04:02:42;42.23;;;22.67;;
1024;SDS011;501;48.214;11.350;2024-01-10T04:05:08;44.17;;;22.50;;
1024;SDS011;501;48.214;11.350;2024-01-10T04:07:41;39.70;;;21.37;;
1024;SDS011;501;48.214;11.350;2024-01-10T04:10:08;39.97;;;21.33;;
1024;SDS011;501;48.214;11.350;2024-01-10T04:12:48;42.90;;;21.47;;
1024;SDS011;501;48.214;11.350;2024-01-10T04:15:14;46.50;;;23.00;;
1024;SDS011;501;48.214;11.350;2024-01-10T04:17:40;47.63;;;23.77;;
1024;SDS011;501;48.214;11.350;2024-01-10T04:20:06;37.93;;;20.63;;
1024;SDS011;501;48.214;11.350;2024-01-10T04:22:32;40.70;;;23.33;;
1024;SDS011;501;48.214;11.350;2024-01-10T04:24:59;44.07;;;22.63;;
1024;SDS011;501;48.214;11.350;2024-01-10T04:27:28;40.63;;;21.73;;
1024;SDS011;501;48.214;11.350;2024-01-10T04:29:54;37.00;;;20.60;;
1024;SDS011;501;48.214;11.350;2024-01-10T04:32:19;37.90;;;21.10;;
1024;SDS011;501;48.214;11.350;2024-01-10T04:34:45;36.93;;;22.20;;
1024;SDS011;501;48.214;11.350;2024-01-10T04:37:12;40.73;;;21.93;;
1024;SDS011;501;48.214;11.350;2024-01-10T04:39:38;43.27;;;21.13;;
1024;SDS011;501;48.214;11.350;2024-01-10T04:42:05;40.20;;;22.30;;
1024;SDS011;501;48.214;11.350;2024-01-10T04:44:31;41.83;;;22.23;;
1024;SDS011;501;48.214;11.350;2024-01-10T04:46:56;47.00;;;24.00;;
1024;SDS011;501;48.214;11.350;2024-01-10T04:49:22;45.80;;;23.97;;
1024;SDS011;501;48.214;11.350;2024-01-10T04:51:48;39.93;;;21.47;;
1024;SDS011;501;48.214;11.350;2024-01-10T04:54:14;39.57;;;21.07;;
1024;SDS011;501;48.214;11.350;2024-01-10T04:56:40;37.63;;;21.17;;
1024;SDS011;501;48.214;11.350;2024-01-10T04:59:06;38.40;;;21.60;;
1024;SDS011;501;48.214;11.350;2024-01-10T05:01:31;43.90;;;21.80;;
1024;SDS011;501;48.214;11.350;2024-01-10T05:03:57;33.07;;;20.20;;
1024;SDS011;501;48.214;11.350;2024-01-10T05:06:23;48.77;;;24.13;;
1024;SDS011;501;48.214;11.350;2024-01-10T05:08:49;41.47;;;21.90;;
1024;SDS011;501;48.214;11.350;2024-01-10T05:11:15;51.97;;;23.40;;
1024;SDS011;501;48.214;11.350;2024-01-10T05:13:42;44.37;;;21.60;;
1024;SDS011;501;48.214;11.350;2024-01-10T05:16:08;44.13;;;22.07;;
1024;SDS011;501;48.214;11.350;2024-01-10T05:18:34;49.03;;;23.70;;
1024;SDS011;501;48.214;11.350;2024-01-10T05:21:00;39.07;;;22.83;;
1024;SDS011;501;48.214;11.350;2024-01-10T05:23:25;55.10;;;26.70;;
1024;SDS011;501;48.214;11.350;2024-01-10T05:25:51;49.83;;;27.43;;
1024;SDS011;501;48.214;11.350;2024-01-10T05:28:18;55.20;;;29.50;;
1024;SDS011;501;48.214;11.350;2024-01-10T05:30:44;51.70;;;29.00;;
1024;SDS011;501;48.214;11.350;2024-01-10T05:33:10;51.93;;;27.70;;
1024;SDS011;501;48.214;11.350;2024-01-10T05:35:36;48.83;;;30.23;;
1024;SDS011;501;48.214;11.350;2024-01-10T05:38:03;46.43;;;27.07;;
1024;SDS011;501;48.214;11.350;2024-01-10T05:40:29;53.40;;;28.23;;
1024;SDS011;501;48.214;11.350;2024-01-10T05:42:57;47.70;;;24.10;;
1024;SDS011;501;48.214;11.350;2024-01-10T05:45:26;52.00;;;23.70;;
1024;SDS011;501;48.214;11.350;2024-01-10T05:47:53;45.10;;;24.00;;
1024;SDS011;501;48.214;11.350;2024-01-10T05:50:19;45.73;;;26.50;;
1024;SDS011;501;48.214;11.350;2024-01-10T05:52:45;42.40;;;23.53;;
1024;SDS011;501;48.214;11.350;2024-01-10T05:55:11;50.27;;;24.43;;
1024;SDS011;501;48.214;11.350;2024-01-10T05:57:36;44.10;;;25.13;;
1024;SDS011;501;48.214;11.350;2024-01-10T06:00:03;44.37;;;22.70;;
1024;SDS011;501;48.214;11.350;2024-01-10T06:02:37;44.60;;;23.43;;
1024;SDS011;501;48.214;11.350;2024-01-10T06:05:07;44.83;;;22.93;;
1024;SDS011;501;48.214;11.350;2024-01-10T06:07:34;49.20;;;23.70;;
1024;SDS011;501;48.214;11.350;2024-01-10T06:10:03;40.77;;;22.60;;
1024;SDS011;501;48.214;11.350;2024-01-10T06:12:30;43.73;;;21.93;;
1024;SDS011;501;48.214;11.350;2024-01-10T06:14:56;49.40;;;24.97;;
1024;SDS011;501;48.214;11.350;2024-01-10T06:17:22;46.33;;;23.27;;
1024;SDS011;501;48.214;11.350;2024-01-10T06:19:49;45.93;;;24.33;;
1024;SDS011;501;48.214;11.350;2024-01-10T06:22:15;47.57;;;25.03;;
1024;SDS011;501;48.214;11.350;2024-01-10T06:24:41;47.77;;;24.60;;
1024;SDS011;501;48.214;11.350;2024-01-10T06:27:07;48.87;;;22.87;;
1024;SDS011;501;48.214;11.350;2024-01-10T06:29:34;40.67;;;24.40;;
1024;SDS011;501;48.214;11.350;2024-01-10T06:32:03;43.53;;;23.50;;
1024;SDS011;501;48.214;11.350;2024-01-10T06:34:29;45.67;;;24.97;;
1024;SDS011;501;48.214;11.350;2024-01-10T06:36:54;43.00;;;22.50;;
1024;SDS011;501;48.214;11.350;2024-01-10T06:39:20;43.73;;;22.97;;
1024;SDS011;501;48.214;11.350;2024-01-10T06:41:46;52.10;;;25.77;;
1024;SDS011;501;48.214;11.350;2024-01-10T06:44:15;39.80;;;22.27;;
1024;SDS011;501;48.214;11.350;2024-01-10T06:46:42;46.60;;;23.50;;
1024;SDS011;501;48.214;11.350;2024-01-10T06:49:08;48.37;;;22.97;;
1024;SDS011;501;48.214;11.350;2024-01-10T06:51:34;44.40;;;24.20;;
1024;SDS011;501;48.214;11.350;2024-01-10T06:54:00;47.90;;;23.00;;
1024;SDS011;501;48.214;11.350;2024-01-10T06:56:28;44.27;;;24.47;;
1024;SDS011;501;48.214;11.350;2024-01-10T06:58:54;48.23;;;23.60;;
1024;SDS011;501;48.214;11.350;2024-01-10T07:01:20;46.23;;;23.20;;
1024;SDS011;501;48.214;11.350;2024-01-10T07:03:47;46.37;;;24.93;;
1024;SDS011;501;48.214;11.350;2024-01-10T07:06:13;50.80;;;27.30;;
1024;SDS011;501;48.214;11.350;2024-01-10T07:08:42;52.37;;;25.07;;
1024;SDS011;501;48.214;11.350;2024-01-10T07:11:09;54.37;;;26.40;;
1024;SDS011;501;48.214;11.350;2024-01-10T07:13:36;46.33;;;22.87;;
1024;SDS011;501;48.214;11.350;2024-01-10T07:16:02;49.73;;;24.07;;
1024;SDS011;501;48.214;11.350;2024-01-10T07:18:28;55.80;;;26.37;;
1024;SDS011;501;48.214;11.350;2024-01-10T07:20:54;48.30;;;23.23;;
1024;SDS011;501;48.214;11.350;2024-01-10T07:23:19;44.90;;;22.63;;
1024;SDS011;501;48.214;11.350;2024-01-10T07:25:45;45.00;;;23.83;;
1024;SDS011;501;48.214;11.350;2024-01-10T07:28:10;45.03;;;24.97;;
1024;SDS011;501;48.214;11.350;2024-01-10T07:30:36;47.67;;;24.70;;
1024;SDS011;501;48.214;11.350;2024-01-10T07:33:02;61.47;;;26.00;;
1024;SDS011;501;48.214;11.350;2024-01-10T07:35:27;42.23;;;24.80;;
1024;SDS011;501;48.214;11.350;2024-01-10T07:37:54;50.57;;;24.07;;
1024;SDS011;501;48.214;11.350;2024-01-10T07:40:20;44.40;;;24.97;;
1024;SDS011;501;48.214;11.350;2024-01-10T07:42:45;44.20;;;24.10;;
1024;SDS011;501;48.214;11.350;2024-01-10T07:45:11;47.43;;;24.03;;
1024;SDS011;501;48.214;11.350;2024-01-10T07:47:37;45.97;;;23.27;;
1024;SDS011;501;48.214;11.350;2024-01-10T07:50:05;46.30;;;23.80;;
1024;SDS011;501;48.214;11.350;2024-01-10T07:52:35;46.30;;;25.27;;
1024;SDS011;501;48.214;11.350;2024-01-10T07:55:01;45.23;;;24.40;;
1024;SDS011;501;48.214;11.350;2024-01-10T07:57:30;49.80;;;24.17;;
1024;SDS011;501;48.214;11.350;2024-01-10T07:59:55;53.83;;;26.97;;
1024;SDS011;501;48.214;11.350;2024-01-10T08:02:21;47.37;;;24.43;;
1024;SDS011;501;48.214;11.350;2024-01-10T08:04:47;52.67;;;26.63;;
1024;SDS011;501;48.214;11.350;2024-01-10T08:07:13;47.03;;;24.47;;
1024;SDS011;501;48.214;11.350;2024-01-10T08:09:38;50.67;;;24.87;;
1024;SDS011;501;48.214;11.350;2024-01-10T08:12:04;48.93;;;24.90;;
1024;SDS011;501;48.214;11.350;2024-01-10T08:14:30;56.20;;;27.07;;
1024;SDS011;501;48.214;11.350;2024-01-10T08:16:56;42.47;;;23.83;;
1024;SDS011;501;48.214;11.350;2024-01-10T08:19:25;48.57;;;25.47;;
1024;SDS011;501;48.214;11.350;2024-01-10T08:21:51;45.80;;;24.93;;
1024;SDS011;501;48.214;11.350;2024-01-10T08:24:18;46.97;;;25.13;;
1024;SDS011;501;48.214;11.350;2024-01-10T08:26:44;47.57;;;23.17;;
1024;SDS011;501;48.214;11.350;2024-01-10T08:29:10;52.77;;;25.63;;
1024;SDS011;501;48.214;11.350;2024-01-10T08:31:35;43.10;;;25.50;;
1024;SDS011;501;48.214;11.350;2024-01-10T08:34:01;52.73;;;26.93;;
1024;SDS011;501;48.214;11.350;2024-01-10T08:36:27;47.63;;;23.70;;
1024;SDS011;501;48.214;11.350;2024-01-10T08:38:53;48.97;;;25.17;;
1024;SDS011;501;48.214;11.350;2024-01-10T08:41:19;50.77;;;24.40;;
1024;SDS011;501;48.214;11.350;2024-01-10T08:43:46;53.40;;;23.57;;
1024;SDS011;501;48.214;11.350;2024-01-10T08:46:12;39.13;;;21.90;;
1024;SDS011;501;48.214;11.350;2024-01-10T08:48:37;48.40;;;22.10;;
1024;SDS011;501;48.214;11.350;2024-01-10T08:51:03;41.20;;;21.57;;
1024;SDS011;501;48.214;11.350;2024-01-10T08:53:29;41.80;;;21.43;;
1024;SDS011;501;48.214;11.350;2024-01-10T08:55:55;45.73;;;23.00;;
1024;SDS011;501;48.214;11.350;2024-01-10T08:58:21;41.57;;;22.20;;
1024;SDS011;501;48.214;11.350;2024-01-10T09:00:47;43.80;;;21.73;;
1024;SDS011;501;48.214;11.350;2024-01-10T09:03:12;42.70;;;22.57;;
1024;SDS011;501;48.214;11.350;2024-01-10T09:05:38;42.83;;;21.63;;
1024;SDS011;501;48.214;11.350;2024-01-10T09:08:04;39.33;;;21.40;;
1024;SDS011;501;48.214;11.350;2024-01-10T09:10:30;41.60;;;20.90;;
1024;SDS011;501;48.214;11.350;2024-01-10T09:12:57;39.37;;;21.03;;
1024;SDS011;501;48.214;11.350;2024-01-10T09:15:23;47.80;;;21.47;;
1024;SDS011;501;48.214;11.350;2024-01-10T09:17:50;33.53;;;18.97;;
1024;SDS011;501;48.214;11.350;2024-01-10T09:20:17;43.27;;;20.50;;
1024;SDS011;501;48.214;11.350;2024-01-10T09:22:43;39.30;;;19.40;;
1024;SDS011;501;48.214;11.350;2024-01-10T09:25:09;45.40;;;21.43;;
1024;SDS011;501;48.214;11.350;2024-01-10T09:27:38;49.47;;;23.23;;
1024;SDS011;501;48.214;11.350;2024-01-10T09:30:05;43.93;;;22.43;;
1024;SDS011;501;48.214;11.350;2024-01-10T09:32:34;47.30;;;23.47;;
1024;SDS011;501;48.214;11.350;2024-01-10T09:35:00;44.40;;;22.70;;
1024;SDS011;501;48.214;11.350;2024-01-10T09:37:26;44.43;;;20.63;;
1024;SDS011;501;48.214;11.350;2024-01-10T09:39:52;42.37;;;21.97;;
1024;SDS011;501;48.214;11.350;2024-01-10T09:42:18;49.00;;;22.80;;
1024;SDS011;501;48.214;11.350;2024-01-10T09:44:46;49.00;;;21.60;;
1024;SDS011;501;48.214;11.350;2024-01-10T09:47:13;40.10;;;21.43;;
1024;SDS011;501;48.214;11.350;2024-01-10T09:49:41;43.10;;;22.93;;
1024;SDS011;501;48.214;11.350;2024-01-10T09:52:10;45.10;;;22.87;;
1024;SDS011;501;48.214;11.350;2024-01-10T09:54:37;47.00;;;23.27;;
1024;SDS011;501;48.214;11.350;2024-01-10T09:57:05;40.50;;;20.50;;
1024;SDS011;501;48.214;11.350;2024-01-10T09:59:31;45.07;;;23.30;;
1024;SDS011;501;48.214;11.350;2024-01-10T10:01:57;46.27;;;21.77;;
1024;SDS011;501;48.214;11.350;2024-01-10T10:04:27;49.87;;;21.90;;
1024;SDS011;501;48.214;11.350;2024-01-10T10:07:02;44.40;;;22.70;;
1024;SDS011;501;48.214;11.350;2024-01-10T10:09:28;46.57;;;21.73;;
1024;SDS011;501;48.214;11.350;2024-01-10T10:11:55;46.33;;;22.60;;
1024;SDS011;501;48.214;11.350;2024-01-10T10:14:22;41.00;;;22.23;;
1024;SDS011;501;48.214;11.350;2024-01-10T10:16:51;45.43;;;22.67;;
1024;SDS011;501;48.214;11.350;2024-01-10T10:19:23;38.13;;;20.90;;
1024;SDS011;501;48.214;11.350;2024-01-10T10:21:49;48.93;;;23.67;;
1024;SDS011;501;48.214;11.350;2024-01-10T10:24:15;41.47;;;21.00;;
1024;SDS011;501;48.214;11.350;2024-01-10T10:26:41;48.03;;;22.37;;
1024;SDS011;501;48.214;11.350;2024-01-10T10:29:07;37.40;;;20.13;;
1024;SDS011;501;48.214;11.350;2024-01-10T10:31:33;39.97;;;21.17;;
1024;SDS011;501;48.214;11.350;2024-01-10T10:34:02;40.40;;;22.53;;
1024;SDS011;501;48.214;11.350;2024-01-10T10:36:29;38.80;;;20.47;;
1024;SDS011;501;48.214;11.350;2024-01-10T10:38:56;46.47;;;23.17;;
1024;SDS011;501;48.214;11.350;2024-01-10T10:41:28;42.93;;;21.40;;
1024;SDS011;501;48.214;11.350;2024-01-10T10:43:55;41.27;;;20.10;;
1024;SDS011;501;48.214;11.350;2024-01-10T10:46:22;44.73;;;22.80;;
1024;SDS011;501;48.214;11.350;2024-01-10T10:48:52;37.37;;;20.93;;
1024;SDS011;501;48.214;11.350;2024-01-10T10:51:22;40.13;;;22.30;;
1024;SDS011;501;48.214;11.350;2024-01-10T10:53:53;42.07;;;23.00;;
1024;SDS011;501;48.214;11.350;2024-01-10T10:56:20;41.77;;;22.90;;
1024;SDS011;501;48.214;11.350;2024-01-10T10:58:45;39.23;;;22.50;;
1024;SDS011;501;48.214;11.350;2024-01-10T11:01:13;43.07;;;22.17;;
1024;SDS011;501;48.214;11.350;2024-01-10T11:03:40;44.63;;;21.57;;
1024;SDS011;501;48.214;11.350;2024-01-10T11:06:12;40.20;;;22.13;;
1024;SDS011;501;48.214;11.350;2024-01-10T11:08:54;48.93;;;22.53;;
1024;SDS011;501;48.214;11.350;2024-01-10T11:22:22;40.70;;;20.97;;
1024;SDS011;501;48.214;11.350;2024-01-10T11:25:05;40.07;;;19.50;;
1024;SDS011;501;48.214;11.350;2024-01-10T11:27:31;46.03;;;22.20;;
1024;SDS011;501;48.214;11.350;2024-01-10T11:29:57;44.10;;;22.30;;
1024;SDS011;501;48.214;11.350;2024-01-10T11:32:24;42.23;;;21.77;;
1024;SDS011;501;48.214;11.350;2024-01-10T11:34:59;40.73;;;21.97;;
1024;SDS011;501;48.214;11.350;2024-01-10T11:37:43;35.00;;;21.57;;
1024;SDS011;501;48.214;11.350;2024-01-10T11:40:11;42.37;;;21.37;;
1024;SDS011;501;48.214;11.350;2024-01-10T11:42:55;47.43;;;23.80;;
1024;SDS011;501;48.214;11.350;2024-01-10T11:47:55;35.10;;;20.40;;
1024;SDS011;501;48.214;11.350;2024-01-10T11:50:22;47.47;;;20.67;;
1024;SDS011;501;48.214;11.350;2024-01-10T11:52:52;43.30;;;23.30;;
1024;SDS011;501;48.214;11.350;2024-01-10T11:58:16;41.90;;;20.37;;
1024;SDS011;501;48.214;11.350;2024-01-10T12:00:42;42.47;;;20.43;;
1024;SDS011;501;48.214;11.350;2024-01-10T12:03:09;47.03;;;22.50;;
1024;SDS011;501;48.214;11.350;2024-01-10T12:05:39;40.93;;;20.37;;
1024;SDS011;501;48.214;11.350;2024-01-10T12:08:08;40.60;;;21.10;;
1024;SDS011;501;48.214;11.350;2024-01-10T12:10:34;43.97;;;22.47;;
1024;SDS011;501;48.214;11.350;2024-01-10T12:13:03;46.70;;;23.07;;
1024;SDS011;501;48.214;11.350;2024-01-10T12:15:28;36.37;;;22.27;;
1024;SDS011;501;48.214;11.350;2024-01-10T12:17:54;39.63;;;21.53;;
1024;SDS011;501;48.214;11.350;2024-01-10T12:20:20;49.73;;;25.23;;
1024;SDS011;501;48.214;11.350;2024-01-10T12:22:46;38.97;;;21.57;;
1024;SDS011;501;48.214;11.350;2024-01-10T12:25:12;51.03;;;21.37;;
1024;SDS011;501;48.214;11.350;2024-01-10T12:27:38;44.03;;;22.83;;
1024;SDS011;501;48.214;11.350;2024-01-10T12:30:04;38.57;;;21.30;;
1024;SDS011;501;48.214;11.350;2024-01-10T12:32:31;43.30;;;22.63;;
1024;SDS011;501;48.214;11.350;2024-01-10T12:35:01;35.33;;;21.13;;
1024;SDS011;501;48.214;11.350;2024-01-10T12:37:27;41.37;;;22.53;;
1024;SDS011;501;48.214;11.350;2024-01-10T12:39:53;38.67;;;19.80;;
1024;SDS011;501;48.214;11.350;2024-01-10T12:42:19;45.27;;;21.67;;
1024;SDS011;501;48.214;11.350;2024-01-10T12:44:45;36.57;;;20.00;;
1024;SDS011;501;48.214;11.350;2024-01-10T12:47:19;46.53;;;22.37;;
1024;SDS011;501;48.214;11.350;2024-01-10T12:49:45;37.47;;;20.47;;
1024;SDS011;501;48.214;11.350;2024-01-10T12:52:12;45.93;;;25.07;;
1024;SDS011;501;48.214;11.350;2024-01-10T12:54:38;38.60;;;21.03;;
1024;SDS011;501;48.214;11.350;2024-01-10T12:57:04;45.20;;;21.90;;
1024;SDS011;501;48.214;11.350;2024-01-10T12:59:30;46.20;;;23.07;;
1024;SDS011;501;48.214;11.350;2024-01-10T13:01:56;44.73;;;23.20;;
1024;SDS011;501;48.214;11.350;2024-01-10T13:04:22;39.40;;;21.40;;
1024;SDS011;501;48.214;11.350;2024-01-10T13:06:48;38.23;;;20.30;;
1024;SDS011;501;48.214;11.350;2024-01-10T13:09:13;42.30;;;24.77;;
1024;SDS011;501;48.214;11.350;2024-01-10T13:11:39;38.90;;;21.00;;
1024;SDS011;501;48.214;11.350;2024-01-10T13:14:05;34.73;;;19.97;;
1024;SDS011;501;48.214;11.350;2024-01-10T13:16:30;35.47;;;20.60;;
1024;SDS011;501;48.214;11.350;2024-01-10T13:18:56;42.37;;;22.53;;
1024;SDS011;501;48.214;11.350;2024-01-10T13:21:23;34.93;;;20.03;;
1024;SDS011;501;48.214;11.350;2024-01-10T13:23:49;37.40;;;22.80;;
1024;SDS011;501;48.214;11.350;2024-01-10T13:26:16;45.47;;;24.37;;
1024;SDS011;501;48.214;11.350;2024-01-10T13:28:42;35.00;;;20.40;;
1024;SDS011;501;48.214;11.350;2024-01-10T13:31:08;34.57;;;19.00;;
1024;SDS011;501;48.214;11.350;2024-01-10T13:33:34;33.33;;;19.10;;
1024;SDS011;501;48.214;11.350;2024-01-10T13:36:00;35.07;;;18.70;;
1024;SDS011;501;48.214;11.350;2024-01-10T13:38:26;34.23;;;17.83;;
1024;SDS011;501;48.214;11.350;2024-01-10T13:40:52;33.50;;;19.10;;
1024;SDS011;501;48.214;11.350;2024-01-10T13:43:18;36.20;;;20.23;;
1024;SDS011;501;48.214;11.350;2024-01-10T13:45:43;34.17;;;18.67;;
1024;SDS011;501;48.214;11.350;2024-01-10T13:48:09;39.07;;;20.77;;
1024;SDS011;501;48.214;11.350;2024-01-10T13:50:35;44.37;;;24.23;;
1024;SDS011;501;48.214;11.350;2024-01-10T13:53:01;44.30;;;21.43;;
1024;SDS011;501;48.214;11.350;2024-01-10T13:55:29;38.47;;;21.90;;
1024;SDS011;501;48.214;11.350;2024-01-10T13:57:55;34.60;;;20.47;;
1024;SDS011;501;48.214;11.350;2024-01-10T14:00:21;69.67;;;32.93;;
1024;SDS011;501;48.214;11.350;2024-01-10T14:02:47;49.67;;;23.97;;
1024;SDS011;501;48.214;11.350;2024-01-10T14:05:13;46.33;;;23.27;;
1024;SDS011;501;48.214;11.350;2024-01-10T14:07:39;43.07;;;22.60;;
1024;SDS011;501;48.214;11.350;2024-01-10T14:10:05;44.20;;;22.37;;
1024;SDS011;501;48.214;11.350;2024-01-10T14:12:31;35.43;;;20.80;;
1024;SDS011;501;48.214;11.350;2024-01-10T14:14:56;42.53;;;23.67;;
1024;SDS011;501;48.214;11.350;2024-01-10T14:17:23;38.37;;;21.30;;
1024;SDS011;501;48.214;11.350;2024-01-10T14:19:50;38.77;;;20.90;;
1024;SDS011;501;48.214;11.350;2024-01-10T14:22:17;39.50;;;20.67;;
1024;SDS011;501;48.214;11.350;2024-01-10T14:24:43;41.70;;;21.83;;
1024;SDS011;501;48.214;11.350;2024-01-10T14:27:09;43.03;;;23.33;;
1024;SDS011;501;48.214;11.350;2024-01-10T14:29:35;40.10;;;23.83;;
1024;SDS011;501;48.214;11.350;2024-01-10T14:32:00;46.70;;;24.83;;
1024;SDS011;501;48.214;11.350;2024-01-10T14:34:26;47.47;;;24.40;;
1024;SDS011;501;48.214;11.350;2024-01-10T14:36:52;43.80;;;22.17;;
1024;SDS011;501;48.214;11.350;2024-01-10T14:39:18;43.87;;;24.17;;
1024;SDS011;501;48.214;11.350;2024-01-10T14:41:45;53.23;;;25.10;;
1024;SDS011;501;48.214;11.350;2024-01-10T14:44:11;45.57;;;22.83;;
1024;SDS011;501;48.214;11.350;2024-01-10T14:46:37;46.70;;;24.20;;
1024;SDS011;501;48.214;11.350;2024-01-10T14:49:03;43.83;;;22.30;;
1024;SDS011;501;48.214;11.350;2024-01-10T14:51:29;42.20;;;23.83;;
1024;SDS011;501;48.214;11.350;2024-01-10T14:53:55;41.13;;;22.40;;
1024;SDS011;501;48.214;11.350;2024-01-10T14:56:20;40.20;;;22.40;;
1024;SDS011;501;48.214;11.350;2024-01-10T14:58:48;40.60;;;22.43;;
1024;SDS011;501;48.214;11.350;2024-01-10T15:01:15;43.50;;;24.63;;